Time;durP1;ratioP1;P1;durP2;ratioP2;P2;SDS_P1;SDS_P2;PMS_P1;PMS_P2;Temp;Humidity;BMP_temperature;BMP_pressure;BME280_temperature;BME280_humidity;BME280_pressure;Samples;Min_cycle;Max_cycle;Signal;HPM_P1;HPM_P2
2023/07/23 00:01:45;;;;;;;1.50;0.90;;;20.20;85.50;;;;;;4888586;29;20480;-84
2023/07/23 00:04:24;;;;;;;1.47;0.90;;;20.20;85.70;;;;;;4905454;29;20529;-84
2023/07/23 00:06:53;;;;;;;1.50;0.90;;;20.20;85.70;;;;;;4895657;29;20564;-83
2023/07/23 00:09:20;;;;;;;1.47;0.90;;;20.20;84.80;;;;;;4906478;29;20477;-84
2023/07/23 00:11:47;;;;;;;1.43;0.90;;;20.20;84.50;;;;;;4905008;29;20512;-84
2023/07/23 00:14:14;;;;;;;1.47;0.90;;;20.20;84.50;;;;;;4907201;29;20546;-84
2023/07/23 00:16:42;;;;;;;1.50;0.90;;;20.20;84.30;;;;;;4893848;29;20492;-84
2023/07/23 00:19:13;;;;;;;1.50;1.00;;;20.20;84.00;;;;;;4910093;29;20516;-84
2023/07/23 00:21:39;;;;;;;1.43;0.90;;;20.20;83.70;;;;;;4889956;29;20703;-84
2023/07/23 00:24:07;;;;;;;1.50;0.90;;;20.20;84.00;;;;;;4894824;29;20500;-84
2023/07/23 00:26:34;;;;;;;1.47;0.90;;;20.20;84.00;;;;;;4897637;29;20496;-83
2023/07/23 00:29:03;;;;;;;1.50;0.90;;;20.20;83.60;;;;;;4909863;29;20968;-84
2023/07/23 00:31:30;;;;;;;1.47;0.90;;;20.20;84.00;;;;;;4890473;29;21039;-85
2023/07/23 00:34:00;;;;;;;1.50;0.90;;;20.20;84.10;;;;;;4902189;29;20490;-84
2023/07/23 00:36:27;;;;;;;1.43;0.90;;;20.30;84.40;;;;;;4890097;29;20480;-84
2023/07/23 00:38:54;;;;;;;1.47;0.90;;;20.30;84.20;;;;;;4903739;29;20557;-84
2023/07/23 00:41:21;;;;;;;1.47;0.90;;;20.30;84.60;;;;;;4877129;29;20564;-84
2023/07/23 00:43:48;;;;;;;1.50;0.90;;;20.30;85.00;;;;;;4906853;29;20489;-84
2023/07/23 00:46:16;;;;;;;1.60;1.30;;;20.20;84.90;;;;;;4881150;29;20480;-85
2023/07/23 00:48:42;;;;;;;1.43;0.90;;;20.20;85.20;;;;;;4906060;29;20578;-84
2023/07/23 00:51:11;;;;;;;1.77;1.33;;;20.20;85.50;;;;;;4882087;29;20484;-84
2023/07/23 00:53:38;;;;;;;1.50;1.00;;;20.20;85.70;;;;;;4899374;29;20504;-84
2023/07/23 00:56:05;;;;;;;1.50;1.00;;;20.20;85.50;;;;;;4880654;29;20506;-84
2023/07/23 00:58:33;;;;;;;1.47;0.90;;;20.20;85.50;;;;;;4904711;29;20474;-84
2023/07/23 01:00:59;;;;;;;1.47;1.00;;;20.10;85.40;;;;;;4881454;29;20474;-85
2023/07/23 01:03:27;;;;;;;1.43;0.90;;;20.10;85.10;;;;;;4897611;29;21085;-84
2023/07/23 01:05:59;;;;;;;1.47;0.90;;;20.10;85.30;;;;;;4882832;29;20469;-85
2023/07/23 01:08:28;;;;;;;1.43;0.90;;;20.10;85.30;;;;;;4908490;29;20471;-84
2023/07/23 01:10:56;;;;;;;1.43;0.90;;;20.10;85.00;;;;;;4881996;29;20505;-84
2023/07/23 01:13:24;;;;;;;1.47;0.90;;;20.10;85.30;;;;;;4899579;29;20512;-84
2023/07/23 01:15:51;;;;;;;1.50;0.93;;;20.10;85.30;;;;;;4876891;29;20462;-85
2023/07/23 01:18:19;;;;;;;1.47;0.90;;;20.10;85.20;;;;;;4901685;29;20494;-85
2023/07/23 01:20:46;;;;;;;1.50;1.00;;;20.10;85.00;;;;;;4890278;29;20466;-84
2023/07/23 01:23:16;;;;;;;2.20;1.30;;;20.10;85.40;;;;;;4880882;29;20605;-85
2023/07/23 01:25:44;;;;;;;1.40;0.90;;;20.00;85.20;;;;;;4883919;29;20546;-85
2023/07/23 01:28:11;;;;;;;1.43;0.90;;;20.00;85.10;;;;;;4887983;29;20593;-85
2023/07/23 01:30:38;;;;;;;1.50;1.00;;;20.00;84.90;;;;;;4885492;29;20642;-85
2023/07/23 01:33:05;;;;;;;1.43;0.90;;;20.00;84.90;;;;;;4890968;29;20497;-85
2023/07/23 01:38:24;;;;;;;1.43;0.90;;;20.00;84.90;;;;;;4880105;29;21047;-86
2023/07/23 01:40:52;;;;;;;1.50;0.90;;;20.00;84.80;;;;;;4882930;29;20462;-84
2023/07/23 01:43:20;;;;;;;1.47;0.90;;;20.00;84.50;;;;;;4896279;29;20545;-85
2023/07/23 01:45:47;;;;;;;1.43;0.90;;;20.00;84.20;;;;;;4894038;29;20977;-84
2023/07/23 01:48:14;;;;;;;1.50;0.90;;;20.00;84.00;;;;;;4880526;29;20981;-85
2023/07/23 01:50:41;;;;;;;1.47;0.90;;;20.00;83.80;;;;;;4891643;29;20612;-85
2023/07/23 01:53:09;;;;;;;2.27;1.97;;;20.10;83.60;;;;;;4882405;29;20597;-85
2023/07/23 01:55:37;;;;;;;1.43;0.90;;;20.10;83.60;;;;;;4893741;29;21085;-85
2023/07/23 01:58:04;;;;;;;1.43;0.90;;;20.10;83.50;;;;;;4885611;29;20493;-84
2023/07/23 02:00:31;;;;;;;1.43;0.90;;;20.10;83.50;;;;;;4889951;29;21191;-85
2023/07/23 02:02:58;;;;;;;1.43;0.90;;;20.10;83.70;;;;;;4887495;29;20497;-85
2023/07/23 02:05:25;;;;;;;1.43;0.90;;;20.10;83.60;;;;;;4886245;29;20477;-85
2023/07/23 02:07:52;;;;;;;1.47;0.90;;;20.10;83.50;;;;;;4880340;29;20493;-85
2023/07/23 02:10:21;;;;;;;1.50;0.90;;;20.10;83.60;;;;;;4890354;29;20568;-85
2023/07/23 02:12:49;;;;;;;1.50;0.90;;;20.10;83.50;;;;;;4890228;29;20492;-85
2023/07/23 02:15:22;;;;;;;1.50;1.00;;;20.10;83.30;;;;;;4890955;29;20642;-84
2023/07/23 02:17:49;;;;;;;1.50;0.90;;;20.10;83.50;;;;;;4891721;29;20486;-85
2023/07/23 02:20:16;;;;;;;1.47;0.90;;;20.10;83.40;;;;;;4891378;29;20469;-85
2023/07/23 02:22:45;;;;;;;1.50;0.90;;;20.10;83.40;;;;;;4890875;29;20906;-85
2023/07/23 02:25:11;;;;;;;1.50;0.90;;;20.10;83.50;;;;;;4893925;29;20465;-86
2023/07/23 02:27:39;;;;;;;1.43;0.90;;;20.10;83.50;;;;;;4887228;29;20481;-86
2023/07/23 02:30:10;;;;;;;1.43;0.90;;;20.00;83.60;;;;;;4893137;29;20470;-85
2023/07/23 02:32:37;;;;;;;1.43;0.90;;;20.00;83.60;;;;;;4887250;29;20583;-85
2023/07/23 02:35:10;;;;;;;1.47;0.90;;;20.00;83.50;;;;;;4889526;29;20477;-85
2023/07/23 02:37:37;;;;;;;1.40;0.90;;;20.00;83.60;;;;;;4896512;29;20613;-83
2023/07/23 02:40:07;;;;;;;1.40;0.90;;;20.00;83.70;;;;;;4892238;29;20542;-84
2023/07/23 02:42:34;;;;;;;1.43;0.90;;;20.00;83.80;;;;;;4885835;29;20571;-84
2023/07/23 02:45:04;;;;;;;1.50;0.90;;;20.00;83.90;;;;;;4894524;29;20465;-85
2023/07/23 02:47:38;;;;;;;1.43;0.90;;;20.00;83.70;;;;;;4892490;29;20482;-84
2023/07/23 02:50:14;;;;;;;1.47;0.90;;;19.90;83.80;;;;;;4895099;29;20537;-84
2023/07/23 02:52:41;;;;;;;1.50;1.10;;;19.90;83.90;;;;;;4890404;29;20481;-84
2023/07/23 02:55:09;;;;;;;1.47;0.90;;;19.90;83.90;;;;;;4890505;29;20576;-84
2023/07/23 02:57:36;;;;;;;1.50;0.90;;;19.90;83.90;;;;;;4893260;29;20567;-84
2023/07/23 03:00:03;;;;;;;1.47;0.90;;;19.90;83.80;;;;;;4892403;29;20497;-85
2023/07/23 03:02:30;;;;;;;1.47;0.90;;;19.90;84.10;;;;;;4891505;29;20522;-85
2023/07/23 03:04:58;;;;;;;1.50;0.90;;;19.90;84.10;;;;;;4903153;29;20505;-85
2023/07/23 03:07:26;;;;;;;1.50;0.90;;;19.90;84.10;;;;;;4890961;29;20505;-85
2023/07/23 03:09:53;;;;;;;1.47;0.93;;;19.90;83.90;;;;;;4893779;29;20512;-85
2023/07/23 03:12:22;;;;;;;1.47;0.90;;;19.90;83.90;;;;;;4877233;29;20490;-86
2023/07/23 03:14:56;;;;;;;1.43;0.90;;;19.90;84.10;;;;;;4892160;29;20487;-86
2023/07/23 03:17:23;;;;;;;1.50;0.97;;;19.90;84.10;;;;;;4879664;29;21001;-86
2023/07/23 03:19:58;;;;;;;1.47;0.90;;;19.90;84.10;;;;;;4890099;29;21003;-85
2023/07/23 03:22:26;;;;;;;1.73;1.47;;;19.90;84.30;;;;;;4893868;29;20491;-84
2023/07/23 03:24:53;;;;;;;1.50;1.00;;;19.80;84.30;;;;;;4894306;29;20981;-85
2023/07/23 03:27:20;;;;;;;1.43;0.90;;;19.80;84.20;;;;;;4892146;29;20524;-85
2023/07/23 03:29:47;;;;;;;1.40;0.90;;;19.90;84.30;;;;;;4896927;29;20466;-85
2023/07/23 03:32:14;;;;;;;1.40;0.90;;;19.80;84.40;;;;;;4881584;29;20489;-86
2023/07/23 03:34:41;;;;;;;1.47;1.00;;;19.80;84.50;;;;;;4887161;29;20563;-85
2023/07/23 03:38:02;;;;;;;1.40;0.90;;;19.80;84.20;;;;;;4877548;29;20486;-85
2023/07/23 03:40:30;;;;;;;1.50;1.20;;;19.80;84.60;;;;;;4875448;29;20998;-85
2023/07/23 03:42:57;;;;;;;1.43;0.90;;;19.80;84.60;;;;;;4886345;29;20491;-84
2023/07/23 03:45:25;;;;;;;1.40;0.90;;;19.80;84.70;;;;;;4897101;29;20469;-84
2023/07/23 03:47:52;;;;;;;1.40;0.90;;;19.80;84.80;;;;;;4908803;29;20485;-84
2023/07/23 03:50:25;;;;;;;1.47;0.90;;;19.80;84.60;;;;;;4894791;29;20516;-83
2023/07/23 03:52:52;;;;;;;1.47;0.90;;;19.80;84.80;;;;;;4895632;29;20485;-83
2023/07/23 03:55:32;;;;;;;1.43;0.90;;;19.80;84.80;;;;;;4893981;29;20480;-83
2023/07/23 03:58:01;;;;;;;1.43;0.90;;;19.70;84.90;;;;;;4897393;29;20492;-85
2023/07/23 04:00:31;;;;;;;1.50;0.90;;;19.70;85.10;;;;;;4895568;29;20505;-83
2023/07/23 04:03:06;;;;;;;1.60;1.27;;;19.70;85.00;;;;;;4896422;29;20583;-84
2023/07/23 04:05:35;;;;;;;1.50;0.90;;;19.70;85.00;;;;;;4889566;29;20907;-83
2023/07/23 04:08:09;;;;;;;1.47;0.90;;;19.70;85.00;;;;;;4901437;29;20493;-83
2023/07/23 04:10:37;;;;;;;1.43;0.90;;;19.70;84.90;;;;;;4894011;29;20981;-82
2023/07/23 04:13:05;;;;;;;1.43;0.90;;;19.70;85.20;;;;;;4902884;29;20595;-84
2023/07/23 04:15:37;;;;;;;1.50;0.90;;;19.70;85.00;;;;;;4895963;29;20468;-84
2023/07/23 04:18:17;;;;;;;1.43;0.90;;;19.70;85.00;;;;;;4901784;29;20500;-83
2023/07/23 04:20:44;;;;;;;1.50;1.10;;;19.70;84.80;;;;;;4891482;29;20471;-83
2023/07/23 04:23:11;;;;;;;1.43;0.90;;;19.80;84.90;;;;;;4899128;29;20527;-83
2023/07/23 04:25:38;;;;;;;1.43;0.90;;;19.80;84.90;;;;;;4893028;29;20473;-83
2023/07/23 04:28:06;;;;;;;1.47;0.90;;;19.80;84.80;;;;;;4903504;29;20795;-82
2023/07/23 04:30:36;;;;;;;1.43;0.93;;;19.80;84.60;;;;;;4894749;29;20890;-82
2023/07/23 04:33:03;;;;;;;1.47;0.90;;;19.80;84.70;;;;;;4901059;29;20584;-82
2023/07/23 04:35:30;;;;;;;1.43;0.90;;;19.80;84.40;;;;;;4894169;29;20469;-83
2023/07/23 04:37:57;;;;;;;1.47;0.90;;;19.80;84.70;;;;;;4902060;29;20485;-82
2023/07/23 04:40:27;;;;;;;1.47;0.90;;;19.90;84.40;;;;;;4898665;29;20554;-84
2023/07/23 04:42:55;;;;;;;1.43;0.90;;;19.90;84.30;;;;;;4904464;29;20937;-83
2023/07/23 04:45:24;;;;;;;1.47;0.90;;;19.90;84.30;;;;;;4892519;29;20977;-82
2023/07/23 04:47:51;;;;;;;1.47;0.90;;;19.90;84.20;;;;;;4895143;29;20549;-83
2023/07/23 04:50:17;;;;;;;1.70;1.50;;;20.00;84.40;;;;;;4897731;29;20557;-83
2023/07/23 04:52:47;;;;;;;1.40;0.90;;;20.00;84.50;;;;;;4898844;29;20493;-82
2023/07/23 04:55:35;;;;;;;1.43;0.90;;;19.90;84.30;;;;;;4894997;29;20461;-82
2023/07/23 04:58:02;;;;;;;1.40;0.90;;;20.00;84.30;;;;;;4898579;29;20487;-83
2023/07/23 05:00:31;;;;;;;1.60;1.10;;;20.00;84.30;;;;;;4895906;29;20462;-82
2023/07/23 05:02:58;;;;;;;1.50;0.90;;;20.00;84.10;;;;;;4902879;29;20516;-82
2023/07/23 05:05:36;;;;;;;1.50;0.90;;;20.00;84.20;;;;;;4894756;29;20940;-83
2023/07/23 05:08:06;;;;;;;1.40;0.90;;;20.00;84.00;;;;;;4898299;29;20492;-82
2023/07/23 05:10:36;;;;;;;1.43;0.90;;;20.10;84.20;;;;;;4896629;29;20470;-82
2023/07/23 05:13:03;;;;;;;1.47;0.90;;;20.10;84.20;;;;;;4898824;29;20496;-82
2023/07/23 05:15:41;;;;;;;1.43;0.90;;;20.20;84.20;;;;;;4892808;29;20458;-82
2023/07/23 05:18:10;;;;;;;1.40;0.90;;;20.20;84.30;;;;;;4900829;29;20481;-81
2023/07/23 05:24:20;;;;;;;1.40;0.90;;;20.30;84.00;;;;;;4897875;29;20921;-82
2023/07/23 05:26:47;;;;;;;1.47;0.90;;;20.30;84.10;;;;;;4845781;29;20499;-82
2023/07/23 05:29:14;;;;;;;1.43;0.90;;;20.40;84.20;;;;;;4905489;29;20584;-83
2023/07/23 05:31:45;;;;;;;1.43;0.90;;;20.40;84.00;;;;;;4894335;29;20570;-82
2023/07/23 05:34:12;;;;;;;1.47;0.90;;;20.40;83.90;;;;;;4900202;29;20490;-83
2023/07/23 05:36:39;;;;;;;1.43;0.90;;;20.50;83.70;;;;;;4895546;29;20505;-82
2023/07/23 05:39:06;;;;;;;1.50;0.90;;;20.50;83.70;;;;;;4903932;29;20461;-83
2023/07/23 05:41:40;;;;;;;1.47;0.90;;;20.50;83.70;;;;;;4891332;29;20636;-82
2023/07/23 05:44:09;;;;;;;1.50;1.00;;;20.50;83.80;;;;;;4904475;29;20497;-82
2023/07/23 05:46:38;;;;;;;1.43;0.90;;;20.60;83.80;;;;;;4891534;29;20485;-82
2023/07/23 05:49:06;;;;;;;1.43;0.90;;;20.60;83.50;;;;;;4905032;29;20470;-82
2023/07/23 05:51:33;;;;;;;1.47;0.90;;;20.70;83.30;;;;;;4889518;29;20540;-83
2023/07/23 05:54:03;;;;;;;1.47;0.90;;;20.70;83.20;;;;;;4907550;29;20501;-82
2023/07/23 05:56:35;;;;;;;1.50;0.90;;;20.80;83.10;;;;;;4891255;29;20480;-82
2023/07/23 05:59:06;;;;;;;1.43;0.90;;;20.80;82.80;;;;;;4903648;29;20470;-82
2023/07/23 06:01:33;;;;;;;1.50;0.90;;;20.90;82.90;;;;;;4886355;29;20477;-82
2023/07/23 06:04:03;;;;;;;1.50;0.90;;;21.00;82.60;;;;;;4898217;29;20577;-82
2023/07/23 06:06:39;;;;;;;1.50;0.90;;;21.00;82.40;;;;;;4884167;29;20480;-82
2023/07/23 06:09:12;;;;;;;1.50;0.90;;;21.10;82.30;;;;;;4900060;29;20466;-82
2023/07/23 06:11:42;;;;;;;1.47;0.90;;;21.20;82.50;;;;;;4892546;29;20500;-82
2023/07/23 06:14:09;;;;;;;1.43;0.80;;;21.30;82.00;;;;;;4901214;29;20492;-82
2023/07/23 06:16:36;;;;;;;1.50;0.90;;;21.30;82.50;;;;;;4888565;29;20564;-82
2023/07/23 06:19:06;;;;;;;1.40;0.90;;;21.40;82.60;;;;;;4904892;29;20470;-82
2023/07/23 06:24:24;;;;;;;1.43;0.90;;;21.50;82.30;;;;;;4904633;29;20469;-82
2023/07/23 06:26:53;;;;;;;1.50;0.90;;;21.50;81.80;;;;;;4887737;29;20520;-82
2023/07/23 06:29:20;;;;;;;1.47;0.90;;;21.50;81.70;;;;;;4898571;29;20462;-82
2023/07/23 06:31:47;;;;;;;1.43;0.90;;;21.50;81.70;;;;;;4890466;29;20886;-83
2023/07/23 06:34:14;;;;;;;1.47;0.90;;;21.50;81.40;;;;;;4904252;29;20592;-84
2023/07/23 06:36:45;;;;;;;1.47;0.90;;;21.60;81.70;;;;;;4890541;29;20567;-84
2023/07/23 06:39:13;;;;;;;1.50;1.00;;;21.60;81.60;;;;;;4904393;29;20488;-83
2023/07/23 06:41:43;;;;;;;1.47;0.90;;;21.60;80.30;;;;;;4894139;29;20477;-86
2023/07/23 06:44:10;;;;;;;1.50;0.80;;;21.50;80.60;;;;;;4902218;29;20493;-85
2023/07/23 06:46:40;;;;;;;1.43;0.80;;;21.60;81.10;;;;;;4891137;29;20507;-84
2023/07/23 06:49:12;;;;;;;1.50;0.90;;;21.60;80.80;;;;;;4901438;29;20458;-82
2023/07/23 06:51:42;;;;;;;1.50;0.87;;;21.60;80.70;;;;;;4885416;29;20497;-83
2023/07/23 06:54:14;;;;;;;1.50;0.90;;;21.70;80.30;;;;;;4894787;29;20495;-83
2023/07/23 06:56:51;;;;;;;1.47;0.90;;;21.70;80.00;;;;;;4888070;29;20506;-82
2023/07/23 06:59:20;;;;;;;1.43;0.90;;;21.80;80.10;;;;;;4898788;29;20996;-82
2023/07/23 07:01:47;;;;;;;1.47;0.80;;;21.80;80.00;;;;;;4888788;29;20513;-84
2023/07/23 07:04:14;;;;;;;1.50;0.90;;;21.90;79.80;;;;;;4894249;29;20848;-83
2023/07/23 07:06:42;;;;;;;1.47;0.90;;;21.90;80.40;;;;;;4887747;29;20481;-82
2023/07/23 07:09:15;;;;;;;1.47;0.90;;;21.90;80.80;;;;;;4899478;29;20601;-84
2023/07/23 07:11:42;;;;;;;1.70;1.40;;;21.90;81.70;;;;;;4886391;29;20513;-85
2023/07/23 07:14:08;;;;;;;1.40;0.90;;;21.80;83.00;;;;;;4895844;29;20499;-83
2023/07/23 07:16:38;;;;;;;1.47;0.90;;;21.60;82.80;;;;;;4885210;29;20484;-82
2023/07/23 07:19:04;;;;;;;1.47;0.90;;;21.50;83.40;;;;;;4896295;29;20960;-82
2023/07/23 07:21:32;;;;;;;1.50;0.90;;;21.40;83.20;;;;;;4884942;29;20499;-84
2023/07/23 07:24:02;;;;;;;1.50;0.90;;;21.40;82.60;;;;;;4897114;29;20563;-85
2023/07/23 07:26:31;;;;;;;1.47;0.90;;;21.40;83.10;;;;;;4888109;29;20492;-85
2023/07/23 07:28:57;;;;;;;1.40;0.90;;;21.40;83.80;;;;;;4900008;29;20493;-84
2023/07/23 07:31:25;;;;;;;1.43;0.90;;;21.40;83.40;;;;;;4891804;29;20547;-83
2023/07/23 07:33:52;;;;;;;1.47;0.90;;;21.40;84.00;;;;;;4902421;29;20591;-86
2023/07/23 07:36:20;;;;;;;1.43;0.90;;;21.40;83.80;;;;;;4885953;29;20517;-82
2023/07/23 07:38:48;;;;;;;1.43;0.90;;;21.40;83.90;;;;;;4903146;29;20469;-85
2023/07/23 07:41:15;;;;;;;1.50;1.20;;;21.50;84.10;;;;;;4886916;29;20488;-85
2023/07/23 07:43:43;;;;;;;1.80;1.60;;;21.50;84.90;;;;;;4904755;29;20902;-84
2023/07/23 07:46:12;;;;;;;1.50;0.90;;;21.60;85.10;;;;;;4885919;29;20516;-83
2023/07/23 07:48:42;;;;;;;1.50;1.00;;;21.60;85.30;;;;;;4905344;29;20469;-82
2023/07/23 07:51:09;;;;;;;1.47;0.90;;;21.60;85.00;;;;;;4888775;29;20468;-83
2023/07/23 07:53:38;;;;;;;1.40;0.90;;;21.60;85.60;;;;;;4903165;29;20497;-83
2023/07/23 07:56:07;;;;;;;1.50;1.20;;;21.50;86.60;;;;;;4888162;29;20469;-82
2023/07/23 07:58:41;;;;;;;1.43;0.90;;;21.40;88.30;;;;;;4907015;29;20462;-83
2023/07/23 08:01:10;;;;;;;1.43;0.80;;;21.30;88.80;;;;;;4883882;29;20587;-81
2023/07/23 08:03:37;;;;;;;1.47;0.90;;;21.20;89.80;;;;;;4899427;29;20589;-81
2023/07/23 08:06:04;;;;;;;1.47;0.90;;;21.10;90.30;;;;;;4882509;29;20467;-81
2023/07/23 08:08:33;;;;;;;1.60;1.30;;;20.90;91.00;;;;;;4903691;29;20469;-82
2023/07/23 08:11:01;;;;;;;1.43;0.90;;;20.80;90.50;;;;;;4883006;29;20476;-80
2023/07/23 08:13:28;;;;;;;1.40;0.90;;;20.60;91.80;;;;;;4900665;29;20577;-80
2023/07/23 08:15:57;;;;;;;1.47;0.90;;;20.50;92.90;;;;;;4881437;29;20476;-80
2023/07/23 08:18:26;;;;;;;1.47;0.90;;;20.50;93.30;;;;;;4902143;29;20477;-78
2023/07/23 08:20:54;;;;;;;1.47;0.90;;;20.40;93.60;;;;;;4880564;29;21162;-79
2023/07/23 08:23:21;;;;;;;1.50;0.90;;;20.40;95.20;;;;;;4906582;29;20485;-80
2023/07/23 08:25:51;;;;;;;1.47;0.90;;;20.30;95.50;;;;;;4888412;29;20479;-79
2023/07/23 08:28:22;;;;;;;1.47;1.00;;;20.30;95.60;;;;;;4906574;29;20539;-78
2023/07/23 08:30:49;;;;;;;1.50;1.10;;;20.30;96.90;;;;;;4881279;29;20467;-78
2023/07/23 08:33:18;;;;;;;1.47;0.90;;;20.30;96.60;;;;;;4902872;29;20502;-78
2023/07/23 08:35:47;;;;;;;1.43;0.90;;;20.30;97.00;;;;;;4894019;29;20481;-79
2023/07/23 08:38:15;;;;;;;1.47;0.90;;;20.30;97.20;;;;;;4883124;29;20481;-80
2023/07/23 08:40:44;;;;;;;1.43;0.90;;;20.30;97.40;;;;;;4894665;29;20480;-78
2023/07/23 08:43:39;;;;;;;1.47;0.90;;;20.20;97.00;;;;;;4899630;29;20489;-79
2023/07/23 08:46:23;;;;;;;1.50;1.00;;;20.20;96.10;;;;;;4886289;29;20470;-79
2023/07/23 08:49:05;;;;;;;1.47;0.90;;;20.20;97.70;;;;;;4901732;29;20472;-79
2023/07/23 08:51:43;;;;;;;1.50;0.90;;;20.20;97.40;;;;;;4890418;29;20487;-79
2023/07/23 08:54:11;;;;;;;1.47;0.90;;;20.20;97.50;;;;;;4898991;29;20501;-78
2023/07/23 08:56:39;;;;;;;1.50;0.90;;;20.20;98.20;;;;;;4893315;29;20528;-80
2023/07/23 08:59:07;;;;;;;1.50;0.90;;;20.10;98.20;;;;;;4899269;29;20474;-81
2023/07/23 09:01:35;;;;;;;1.43;0.90;;;20.10;97.90;;;;;;4891018;29;20501;-80
2023/07/23 09:04:04;;;;;;;1.43;0.90;;;20.20;98.20;;;;;;4899835;29;20598;-82
2023/07/23 09:06:31;;;;;;;1.47;0.90;;;20.30;98.20;;;;;;4887006;29;20496;-80
2023/07/23 09:09:04;;;;;;;1.50;0.90;;;20.40;98.10;;;;;;4899079;29;21264;-79
2023/07/23 09:11:31;;;;;;;1.50;0.90;;;20.40;97.40;;;;;;4890699;29;20491;-79
2023/07/23 09:14:00;;;;;;;1.40;0.90;;;20.50;97.80;;;;;;4898893;29;20493;-79
2023/07/23 09:16:28;;;;;;;1.40;0.90;;;20.50;97.10;;;;;;4889507;29;20485;-80
2023/07/23 09:18:54;;;;;;;1.47;0.90;;;20.60;97.10;;;;;;4900717;29;20474;-81
2023/07/23 09:21:23;;;;;;;1.43;0.90;;;20.60;96.70;;;;;;4888956;29;20475;-80
2023/07/23 09:23:51;;;;;;;1.50;0.90;;;20.60;96.60;;;;;;4898245;29;20487;-79
2023/07/23 09:26:21;;;;;;;1.60;1.27;;;20.60;96.70;;;;;;4887486;29;21004;-81
2023/07/23 09:28:48;;;;;;;1.43;0.90;;;20.60;96.60;;;;;;4899981;29;20542;-79
2023/07/23 09:31:26;;;;;;;1.47;0.90;;;20.60;96.50;;;;;;4881788;29;21069;-80
2023/07/23 09:33:55;;;;;;;1.43;0.80;;;20.60;96.50;;;;;;4897253;29;20994;-81
2023/07/23 09:36:23;;;;;;;1.40;0.90;;;20.60;96.80;;;;;;4882806;29;20476;-79
2023/07/23 09:38:58;;;;;;;1.50;0.90;;;20.60;96.70;;;;;;4893818;29;20512;-80
2023/07/23 09:41:30;;;;;;;1.47;0.90;;;20.60;97.10;;;;;;4882013;29;20494;-79
2023/07/23 09:44:02;;;;;;;1.50;0.90;;;20.60;97.30;;;;;;4896121;29;20500;-81
2023/07/23 09:46:29;;;;;;;1.47;0.90;;;20.60;97.60;;;;;;4878541;29;20495;-79
2023/07/23 09:48:56;;;;;;;1.43;0.90;;;20.60;97.70;;;;;;4896795;29;20567;-79
2023/07/23 09:51:23;;;;;;;1.47;0.90;;;20.60;97.80;;;;;;4883134;29;21068;-81
2023/07/23 09:53:50;;;;;;;1.47;0.90;;;20.60;97.50;;;;;;4896816;29;20498;-79
2023/07/23 09:56:18;;;;;;;1.43;0.90;;;20.60;97.40;;;;;;4878536;29;20484;-81
2023/07/23 09:58:48;;;;;;;1.50;0.90;;;20.60;97.20;;;;;;4901458;29;20480;-81
2023/07/23 10:01:17;;;;;;;1.43;0.90;;;20.60;97.80;;;;;;4876339;29;20489;-79
2023/07/23 10:03:45;;;;;;;1.47;0.90;;;20.60;98.00;;;;;;4892894;29;20554;-79
2023/07/23 10:06:12;;;;;;;1.40;0.90;;;20.60;98.20;;;;;;4875706;29;20577;-79
2023/07/23 10:08:44;;;;;;;1.47;0.90;;;20.50;98.20;;;;;;4892338;29;21018;-82
2023/07/23 10:11:11;;;;;;;1.43;0.90;;;20.50;98.20;;;;;;4873320;29;21036;-79
2023/07/23 10:13:38;;;;;;;1.47;0.90;;;20.40;98.20;;;;;;4896926;29;20719;-82
2023/07/23 10:16:10;;;;;;;1.50;0.90;;;20.40;98.20;;;;;;4875174;29;20470;-79
2023/07/23 10:18:40;;;;;;;1.43;1.00;;;20.40;98.20;;;;;;4896637;29;20469;-83
2023/07/23 10:21:08;;;;;;;1.47;0.90;;;20.40;98.20;;;;;;4878712;29;20581;-82
2023/07/23 10:23:39;;;;;;;1.40;0.90;;;20.50;98.20;;;;;;4899086;29;20486;-82
2023/07/23 10:26:24;;;;;;;1.47;0.90;;;20.70;98.20;;;;;;4888470;29;20569;-81
2023/07/23 10:28:52;;;;;;;1.43;0.90;;;20.70;97.80;;;;;;4897063;29;20488;-84
2023/07/23 10:31:22;;;;;;;1.50;0.90;;;20.80;97.50;;;;;;4882189;29;20496;-81
2023/07/23 10:33:50;;;;;;;2.23;1.03;;;20.80;97.50;;;;;;4895036;29;20508;-81
2023/07/23 10:36:17;;;;;;;1.40;0.90;;;20.80;97.70;;;;;;4882092;29;21201;-80
2023/07/23 10:38:47;;;;;;;1.43;0.90;;;20.80;97.50;;;;;;4897566;29;20478;-81
2023/07/23 10:41:53;;;;;;;2.37;2.17;;;20.90;97.70;;;;;;4880558;29;20481;-80
2023/07/23 10:44:22;;;;;;;1.50;0.90;;;20.90;97.50;;;;;;4890153;29;20465;-82
2023/07/23 10:46:58;;;;;;;1.43;0.83;;;21.00;97.30;;;;;;4883130;29;20485;-82
2023/07/23 10:49:28;;;;;;;2.43;2.03;;;21.10;97.00;;;;;;4896048;29;20865;-80
2023/07/23 10:51:56;;;;;;;1.50;0.87;;;21.20;96.80;;;;;;4872487;29;20497;-78
2023/07/23 10:54:23;;;;;;;1.40;0.90;;;21.20;96.90;;;;;;4882537;29;20953;-79
2023/07/23 10:56:50;;;;;;;1.47;0.90;;;21.10;97.00;;;;;;4879813;29;20500;-80
2023/07/23 10:59:20;;;;;;;1.43;0.90;;;21.10;96.60;;;;;;4889274;29;21130;-82
2023/07/23 11:01:56;;;;;;;1.47;0.90;;;21.20;96.60;;;;;;4883596;29;20593;-82
2023/07/23 11:04:27;;;;;;;1.50;0.90;;;21.20;96.80;;;;;;4893278;29;20575;-80
2023/07/23 11:07:02;;;;;;;1.50;0.90;;;21.30;96.60;;;;;;4884530;29;20529;-81
2023/07/23 11:09:30;;;;;;;1.47;0.90;;;21.30;96.80;;;;;;4890600;29;20939;-81
2023/07/23 11:11:58;;;;;;;1.47;0.90;;;21.30;96.50;;;;;;4884433;29;21200;-81
2023/07/23 11:14:27;;;;;;;1.50;0.90;;;21.30;96.60;;;;;;4886829;29;20599;-81
2023/07/23 11:16:56;;;;;;;1.50;0.90;;;21.40;96.50;;;;;;4883539;29;20954;-80
2023/07/23 11:19:26;;;;;;;1.47;0.80;;;21.40;96.40;;;;;;4896326;29;20469;-81
2023/07/23 11:21:56;;;;;;;1.47;0.90;;;21.40;96.20;;;;;;4884901;29;20531;-81
2023/07/23 11:24:37;;;;;;;1.50;1.20;;;21.40;96.00;;;;;;4898586;29;21123;-80
2023/07/23 11:27:06;;;;;;;1.43;0.90;;;21.40;96.00;;;;;;4887676;29;20491;-83
2023/07/23 11:29:34;;;;;;;1.50;0.90;;;21.30;96.30;;;;;;4892923;29;20469;-81
2023/07/23 11:32:02;;;;;;;1.60;1.40;;;21.30;96.00;;;;;;4885926;29;20500;-80
2023/07/23 11:34:31;;;;;;;1.50;0.90;;;21.30;96.10;;;;;;4890964;29;20911;-80
2023/07/23 11:36:58;;;;;;;1.50;0.90;;;21.30;96.10;;;;;;4884320;29;20511;-80
2023/07/23 11:39:31;;;;;;;1.47;0.90;;;21.30;96.20;;;;;;4895478;29;20469;-83
2023/07/23 11:41:58;;;;;;;1.43;0.80;;;21.30;96.60;;;;;;4885938;29;20507;-82
2023/07/23 11:44:25;;;;;;;1.43;0.90;;;21.40;96.40;;;;;;4892675;29;20564;-81
2023/07/23 11:47:01;;;;;;;1.43;0.90;;;21.40;96.60;;;;;;4882560;29;20548;-81
2023/07/23 11:49:30;;;;;;;1.47;0.90;;;21.40;96.30;;;;;;4888509;29;20511;-82
2023/07/23 11:52:05;;;;;;;1.50;0.90;;;21.40;96.40;;;;;;4880683;29;20545;-82
2023/07/23 11:54:32;;;;;;;1.50;0.90;;;21.40;97.50;;;;;;4887877;29;20931;-82
2023/07/23 11:56:59;;;;;;;1.47;0.90;;;21.40;98.20;;;;;;4884682;29;20795;-81
2023/07/23 11:59:26;;;;;;;1.50;0.90;;;21.40;98.20;;;;;;4887084;29;20968;-82
2023/07/23 12:01:59;;;;;;;1.50;0.90;;;21.40;98.20;;;;;;4882886;29;20720;-82
2023/07/23 12:04:26;;;;;;;1.50;0.90;;;21.30;98.20;;;;;;4889310;29;20462;-82
2023/07/23 12:06:58;;;;;;;1.43;0.90;;;21.30;97.40;;;;;;4887006;29;20495;-82
2023/07/23 12:09:28;;;;;;;1.50;0.90;;;21.40;97.10;;;;;;4897122;29;20469;-83
2023/07/23 12:11:59;;;;;;;1.50;0.90;;;21.40;97.00;;;;;;4888078;29;20489;-81
2023/07/23 12:14:28;;;;;;;1.50;0.90;;;21.40;97.00;;;;;;4890701;29;20513;-83
2023/07/23 12:16:58;;;;;;;1.50;0.90;;;21.50;96.90;;;;;;4884004;29;21016;-80
2023/07/23 12:19:28;;;;;;;1.50;0.90;;;21.50;96.70;;;;;;4892508;29;20509;-80
2023/07/23 12:22:39;;;;;;;1.50;0.90;;;21.50;96.80;;;;;;4883767;29;20564;-83
2023/07/23 12:25:06;;;;;;;1.43;0.90;;;21.50;96.90;;;;;;4864064;29;21070;-82
2023/07/23 12:27:44;;;;;;;1.50;0.90;;;21.50;97.10;;;;;;4889139;29;20481;-81
2023/07/23 12:30:15;;;;;;;1.47;0.90;;;21.60;96.60;;;;;;4889597;29;20465;-81
2023/07/23 12:32:42;;;;;;;1.47;0.90;;;21.70;96.70;;;;;;4891553;29;20507;-81
2023/07/23 12:35:09;;;;;;;1.43;0.90;;;21.70;96.60;;;;;;4889564;29;20505;-81
2023/07/23 12:37:50;;;;;;;1.47;0.90;;;21.70;96.40;;;;;;4889768;29;20896;-81
2023/07/23 12:40:30;;;;;;;;;;;;;;;;;;;;;
2023/07/23 12:43:01;;;;;;;1.43;0.90;;;21.80;96.40;;;;;;4876737;29;20562;-81
2023/07/23 12:45:49;;;;;;;1.47;0.90;;;21.80;96.30;;;;;;4885823;29;20577;-79
2023/07/23 12:48:35;;;;;;;1.60;1.27;;;21.90;96.20;;;;;;4875146;29;20477;-82
2023/07/23 12:51:07;;;;;;;1.50;0.90;;;21.90;96.50;;;;;;4881052;29;20473;-82
2023/07/23 12:54:00;;;;;;;1.43;0.90;;;21.80;96.50;;;;;;4896367;29;21114;-81
2023/07/23 12:59:20;;;;;;;1.50;0.90;;;21.90;96.70;;;;;;4888636;29;20550;-83
2023/07/23 13:02:07;;;;;;;1.50;1.00;;;21.90;96.50;;;;;;4888259;29;20560;-82
2023/07/23 13:04:40;;;;;;;1.50;0.90;;;22.00;96.40;;;;;;4889827;29;20457;-83
2023/07/23 13:07:16;;;;;;;1.47;0.90;;;22.10;96.50;;;;;;4884632;29;20618;-83
2023/07/23 13:09:52;;;;;;;1.50;0.90;;;22.10;96.20;;;;;;4888456;29;20472;-83
2023/07/23 13:12:24;;;;;;;1.47;0.90;;;22.20;96.10;;;;;;4886852;29;20492;-84
2023/07/23 13:14:51;;;;;;;1.50;0.90;;;22.40;95.90;;;;;;4887077;29;20499;-85